Time;durP1;ratioP1;P1;durP2;ratioP2;P2;SDS_P1;SDS_P2;PMS_P1;PMS_P2;Temp;Humidity;BMP_temperature;BMP_pressure;BME280_temperature;BME280_humidity;BME280_pressure;Samples;Min_cycle;Max_cycle;Signal;HPM_P1;HPM_P2
2023/07/18 00:02:06;;;;;;;11.68;2.45;;;;;;;-143.49;100.00;65027.28;5092686;28;20484;-69
2023/07/18 00:04:31;;;;;;;12.93;2.20;;;;;;;-143.49;100.00;65027.28;5092505;28;20445;-69
2023/07/18 00:06:56;;;;;;;11.30;2.30;;;;;;;-143.49;100.00;65027.28;5074919;28;20028;-69
2023/07/18 00:09:22;;;;;;;8.13;2.22;;;;;;;-143.49;100.00;65027.28;5096127;28;20178;-70
2023/07/18 00:11:47;;;;;;;10.00;2.40;;;;;;;-143.49;100.00;65027.28;5096211;28;20043;-69
2023/07/18 00:14:14;;;;;;;16.20;2.47;;;;;;;-143.49;100.00;65027.28;5096013;28;20031;-70
2023/07/18 00:16:40;;;;;;;14.15;2.63;;;;;;;-143.49;100.00;65027.28;5077971;28;20032;-70
2023/07/18 00:19:05;;;;;;;13.18;2.63;;;;;;;-143.49;100.00;65027.28;5096583;28;20473;-70
2023/07/18 00:21:31;;;;;;;11.13;2.42;;;;;;;-143.49;100.00;65027.28;5096369;28;20035;-70
2023/07/18 00:23:58;;;;;;;13.45;2.40;;;;;;;-143.49;100.00;65027.28;5077835;28;20020;-70
2023/07/18 00:26:24;;;;;;;19.02;2.55;;;;;;;-143.49;100.00;65027.28;5077864;28;20395;-70
2023/07/18 00:28:53;;;;;;;16.35;2.97;;;;;;;-143.49;100.00;65027.28;5095785;28;20024;-69
2023/07/18 00:31:18;;;;;;;9.77;2.30;;;;;;;-143.49;100.00;65027.28;5095739;28;20023;-69
2023/07/18 00:33:44;;;;;;;11.50;2.58;;;;;;;-143.49;100.00;65027.28;5095740;28;20031;-70
2023/07/18 00:36:09;;;;;;;11.48;2.50;;;;;;;-143.49;100.00;65027.28;5077451;28;20054;-70
2023/07/18 00:38:34;;;;;;;13.15;2.47;;;;;;;-143.49;100.00;65027.28;5077481;28;20493;-70
2023/07/18 00:41:00;;;;;;;13.07;2.65;;;;;;;-143.49;100.00;65027.28;5095788;28;20019;-70
2023/07/18 00:43:25;;;;;;;13.00;2.60;;;;;;;-143.49;100.00;65027.28;5077522;28;20391;-70
2023/07/18 00:45:50;;;;;;;10.38;2.45;;;;;;;-143.49;100.00;65027.28;5095416;28;20019;-69
2023/07/18 00:48:16;;;;;;;20.08;2.40;;;;;;;-143.49;100.00;65027.28;5095407;28;20024;-70
2023/07/18 00:50:42;;;;;;;7.43;2.25;;;;;;;-143.49;100.00;65027.28;5095494;28;20489;-70
2023/07/18 00:53:07;;;;;;;10.80;2.10;;;;;;;-143.49;100.00;65027.28;5095274;28;20055;-70
2023/07/18 00:55:33;;;;;;;13.32;2.35;;;;;;;-143.49;100.00;65027.28;5095377;28;20043;-70
2023/07/18 00:57:59;;;;;;;13.27;2.38;;;;;;;-143.49;100.00;65027.28;5095286;28;20020;-70
2023/07/18 01:00:25;;;;;;;13.18;2.40;;;;;;;-143.49;100.00;65027.28;5095380;28;20031;-70
2023/07/18 01:02:50;;;;;;;15.55;2.55;;;;;;;-143.49;100.00;65027.28;5095245;28;20020;-70
2023/07/18 01:05:18;;;;;;;10.38;2.67;;;;;;;-143.49;100.00;65027.28;5095310;28;20062;-70
2023/07/18 01:07:44;;;;;;;11.27;2.25;;;;;;;-143.49;100.00;65027.28;5076781;28;20491;-70
2023/07/18 01:10:17;;;;;;;9.35;2.20;;;;;;;-143.49;100.00;65027.28;5076942;28;20039;-70
2023/07/18 01:12:43;;;;;;;;;;;;;;;-143.49;100.00;65027.28;5095611;28;20532;-70
2023/07/18 01:15:12;;;;;;;14.07;2.30;;;;;;;-143.49;100.00;65027.28;5076699;28;19915;-70
2023/07/18 01:17:40;;;;;;;7.38;2.00;;;;;;;-143.49;100.00;65027.28;5094931;28;20070;-70
2023/07/18 01:20:11;;;;;;;13.27;2.50;;;;;;;-143.49;100.00;65027.28;5094239;28;20027;-70
2023/07/18 01:22:36;;;;;;;12.98;2.60;;;;;;;-143.49;100.00;65027.28;5076700;28;20054;-70
2023/07/18 01:25:01;;;;;;;10.25;2.30;;;;;;;-143.49;100.00;65027.28;5095026;28;20020;-71
2023/07/18 01:27:27;;;;;;;8.60;2.22;;;;;;;-143.49;100.00;65027.28;5094772;28;20016;-70
2023/07/18 01:29:52;;;;;;;11.82;2.55;;;;;;;-143.49;100.00;65027.28;5076430;28;20435;-70
2023/07/18 01:32:17;;;;;;;12.82;2.35;;;;;;;-143.49;100.00;65027.28;5076538;28;20158;-70
2023/07/18 01:34:43;;;;;;;11.30;2.30;;;;;;;-143.49;100.00;65027.28;5094478;28;20024;-70
2023/07/18 01:37:08;;;;;;;15.10;2.67;;;;;;;-143.49;100.00;65027.28;5094427;28;20126;-69
2023/07/18 01:39:34;;;;;;;11.13;2.10;;;;;;;-143.49;100.00;65027.28;5094505;28;20383;-69
2023/07/18 01:41:59;;;;;;;9.40;2.15;;;;;;;-143.49;100.00;65027.28;5094450;28;20020;-69
2023/07/18 01:44:24;;;;;;;8.05;2.10;;;;;;;-143.49;100.00;65027.28;5076192;28;20031;-69
2023/07/18 01:46:50;;;;;;;12.20;2.20;;;;;;;-143.49;100.00;65027.28;5094465;28;20425;-70
2023/07/18 01:49:15;;;;;;;10.32;2.30;;;;;;;-143.49;100.00;65027.28;5094263;28;20028;-70
2023/07/18 01:51:40;;;;;;;13.63;2.17;;;;;;;-143.49;100.00;65027.28;5076091;28;20120;-69
2023/07/18 01:54:07;;;;;;;9.13;2.47;;;;;;;-143.49;100.00;65027.28;5094108;28;20031;-70
2023/07/18 01:56:32;;;;;;;8.63;2.00;;;;;;;-143.49;100.00;65027.28;5094316;28;20024;-69
2023/07/18 01:58:57;;;;;;;13.60;2.22;;;;;;;-143.49;100.00;65027.28;5094142;28;20020;-70
2023/07/18 02:01:22;;;;;;;10.40;2.28;;;;;;;-143.49;100.00;65027.28;5094334;28;20024;-69
2023/07/18 02:03:48;;;;;;;10.32;2.50;;;;;;;-143.49;100.00;65027.28;5094049;28;20039;-69
2023/07/18 02:06:13;;;;;;;11.55;2.20;;;;;;;-143.49;100.00;65027.28;5094289;28;20024;-69
2023/07/18 02:08:38;;;;;;;10.00;1.88;;;;;;;-143.49;100.00;65027.28;5075998;28;20097;-69
2023/07/18 02:11:04;;;;;;;8.48;2.03;;;;;;;-143.49;100.00;65027.28;5094008;28;20024;-70
2023/07/18 02:13:29;;;;;;;9.80;2.05;;;;;;;-143.49;100.00;65027.28;5093936;28;20379;-69
2023/07/18 02:15:55;;;;;;;10.38;2.15;;;;;;;-143.49;100.00;65027.28;5093907;28;20430;-70
2023/07/18 02:18:20;;;;;;;6.88;2.08;;;;;;;-143.49;100.00;65027.28;5093777;28;20528;-70
2023/07/18 02:20:45;;;;;;;11.77;2.10;;;;;;;-143.49;100.00;65027.28;5093800;28;20502;-70
2023/07/18 02:23:11;;;;;;;8.38;2.20;;;;;;;-143.49;100.00;65027.28;5075532;28;20020;-70
2023/07/18 02:25:36;;;;;;;9.07;2.17;;;;;;;-143.49;100.00;65027.28;5075505;28;20387;-70
2023/07/18 02:28:02;;;;;;;11.63;2.08;;;;;;;-143.49;100.00;65027.28;5093665;28;20031;-69
2023/07/18 02:30:27;;;;;;;8.88;2.00;;;;;;;-143.49;100.00;65027.28;5074787;28;20081;-70
2023/07/18 02:32:53;;;;;;;9.95;2.35;;;;;;;-143.49;100.00;65027.28;5093522;28;20103;-70
2023/07/18 02:35:21;;;;;;;11.13;2.15;;;;;;;-143.49;100.00;65027.28;5093490;28;20063;-70
2023/07/18 02:37:47;;;;;;;13.45;2.40;;;;;;;-143.49;100.00;65027.28;5075286;28;20034;-70
2023/07/18 02:40:14;;;;;;;9.00;2.13;;;;;;;-143.49;100.00;65027.28;5093507;28;20024;-70
2023/07/18 02:42:39;;;;;;;11.40;2.10;;;;;;;-143.49;100.00;65027.28;5075449;28;20020;-71
2023/07/18 02:45:06;;;;;;;8.13;2.10;;;;;;;-143.49;100.00;65027.28;5093480;28;20434;-70
2023/07/18 02:47:32;;;;;;;7.20;1.95;;;;;;;-143.49;100.00;65027.28;5075340;28;20119;-70
2023/07/18 02:49:57;;;;;;;7.75;1.98;;;;;;;-143.49;100.00;65027.28;5093327;28;20114;-70
2023/07/18 02:52:22;;;;;;;6.97;2.03;;;;;;;-143.49;100.00;65027.28;5093345;28;20036;-71
2023/07/18 02:54:50;;;;;;;14.07;2.17;;;;;;;-143.49;100.00;65027.28;5093154;28;20020;-69
2023/07/18 02:57:15;;;;;;;9.88;2.47;;;;;;;-143.49;100.00;65027.28;5093305;28;20097;-69
2023/07/18 02:59:41;;;;;;;8.65;2.30;;;;;;;-143.49;100.00;65027.28;5075909;28;20414;-69
2023/07/18 03:02:06;;;;;;;6.63;2.20;;;;;;;-143.49;100.00;65027.28;5093414;28;20028;-69
2023/07/18 03:04:31;;;;;;;12.93;2.70;;;;;;;-143.49;100.00;65027.28;5093899;28;20096;-68
2023/07/18 03:06:57;;;;;;;6.55;2.00;;;;;;;-143.49;100.00;65027.28;5098244;28;20024;-69
2023/07/18 03:09:23;;;;;;;9.52;2.15;;;;;;;-143.49;100.00;65027.28;5098174;28;20084;-68
2023/07/18 03:11:51;;;;;;;10.80;2.45;;;;;;;-143.49;100.00;65027.28;5098366;28;20051;-68
2023/07/18 03:14:17;;;;;;;8.25;2.30;;;;;;;-143.49;100.00;65027.28;5098695;28;20020;-68
2023/07/18 03:16:43;;;;;;;14.60;2.63;;;;;;;-143.49;100.00;65027.28;5098611;28;20058;-68
2023/07/18 03:19:09;;;;;;;7.45;2.33;;;;;;;-143.49;100.00;65027.28;5098252;28;20059;-69
2023/07/18 03:21:34;;;;;;;7.20;2.25;;;;;;;-143.49;100.00;65027.28;5098798;28;20021;-69
2023/07/18 03:24:00;;;;;;;8.40;2.38;;;;;;;-143.49;100.00;65027.28;5098006;28;20107;-69
2023/07/18 03:26:25;;;;;;;7.10;2.15;;;;;;;-143.49;100.00;65027.28;5097832;28;20475;-70
2023/07/18 03:28:50;;;;;;;8.63;2.38;;;;;;;-143.49;100.00;65027.28;5098223;28;20107;-69
2023/07/18 03:31:15;;;;;;;11.48;2.40;;;;;;;-143.49;100.00;65027.28;5080233;28;20024;-69
2023/07/18 03:33:41;;;;;;;8.18;2.60;;;;;;;-143.49;100.00;65027.28;5080445;28;20024;-69
2023/07/18 03:36:06;;;;;;;8.38;2.50;;;;;;;-143.49;100.00;65027.28;5097840;28;20123;-69
2023/07/18 03:38:32;;;;;;;6.85;2.20;;;;;;;-143.49;100.00;65027.28;5098282;28;20098;-69
2023/07/18 03:40:58;;;;;;;11.10;2.50;;;;;;;-143.49;100.00;65027.28;5080005;28;20023;-69
2023/07/18 03:43:24;;;;;;;9.77;2.33;;;;;;;-143.49;100.00;65027.28;5082513;28;20054;-69
2023/07/18 03:45:50;;;;;;;9.05;2.70;;;;;;;-143.49;100.00;65027.28;5101624;28;20450;-69
2023/07/18 03:48:15;;;;;;;5.88;2.03;;;;;;;-143.49;100.00;65027.28;5081048;28;20028;-70
2023/07/18 03:50:41;;;;;;;12.30;2.45;;;;;;;-143.49;100.00;65027.28;5079141;28;20376;-70
2023/07/18 03:53:06;;;;;;;6.80;2.42;;;;;;;-143.49;100.00;65027.28;5078885;28;20054;-69
2023/07/18 03:55:31;;;;;;;12.63;2.80;;;;;;;-143.49;100.00;65027.28;5099856;28;20317;-69
2023/07/18 03:57:57;;;;;;;8.05;2.42;;;;;;;-143.49;100.00;65027.28;5082749;28;20032;-70
2023/07/18 04:00:22;;;;;;;8.65;2.80;;;;;;;-143.49;100.00;65027.28;5079276;28;20024;-70
2023/07/18 04:02:48;;;;;;;10.20;2.60;;;;;;;-143.49;100.00;65027.28;5096433;28;20050;-71
2023/07/18 04:05:16;;;;;;;9.82;2.60;;;;;;;-143.49;100.00;65027.28;5096504;28;20023;-70
2023/07/18 04:07:43;;;;;;;13.43;2.83;;;;;;;-143.49;100.00;65027.28;5078043;28;20051;-70
2023/07/18 04:10:11;;;;;;;10.43;2.67;;;;;;;-143.49;100.00;65027.28;5096241;28;20024;-70
2023/07/18 04:12:37;;;;;;;7.88;2.65;;;;;;;-143.49;100.00;65027.28;5096266;28;20486;-70
2023/07/18 04:15:02;;;;;;;7.50;2.80;;;;;;;-143.49;100.00;65027.28;5096148;28;20036;-70
2023/07/18 04:17:28;;;;;;;9.23;2.90;;;;;;;-143.49;100.00;65027.28;5096084;28;20027;-69
2023/07/18 04:19:59;;;;;;;11.68;2.70;;;;;;;-143.49;100.00;65027.28;5077861;28;20028;-70
2023/07/18 04:22:24;;;;;;;7.72;2.42;;;;;;;-143.49;100.00;65027.28;5096043;28;20020;-70
2023/07/18 04:24:50;;;;;;;11.63;2.60;;;;;;;-143.49;100.00;65027.28;5095992;28;20020;-70
2023/07/18 04:27:15;;;;;;;13.82;2.92;;;;;;;-143.49;100.00;65027.28;5095870;28;20538;-70
2023/07/18 04:29:40;;;;;;;8.73;3.05;;;;;;;-143.49;100.00;65027.28;5077964;28;20027;-69
2023/07/18 04:32:06;;;;;;;10.18;2.72;;;;;;;-143.49;100.00;65027.28;5095863;28;20472;-70
2023/07/18 04:34:31;;;;;;;6.72;2.50;;;;;;;-143.49;100.00;65027.28;5095713;28;20028;-70
2023/07/18 04:36:57;;;;;;;9.75;2.90;;;;;;;-143.49;100.00;65027.28;5095957;28;20028;-69
2023/07/18 04:39:22;;;;;;;12.73;3.05;;;;;;;-143.49;100.00;65027.28;5095822;28;20105;-70
2023/07/18 04:41:47;;;;;;;8.25;3.00;;;;;;;-143.49;100.00;65027.28;5095623;28;20035;-71
2023/07/18 04:44:13;;;;;;;6.40;2.50;;;;;;;-143.49;100.00;65027.28;5095560;28;20409;-70
2023/07/18 04:46:38;;;;;;;5.30;2.42;;;;;;;-143.49;100.00;65027.28;5077273;28;20387;-70
2023/07/18 04:49:04;;;;;;;9.52;3.00;;;;;;;-143.49;100.00;65027.28;5095394;28;20030;-71
2023/07/18 04:51:29;;;;;;;9.52;2.50;;;;;;;-143.49;100.00;65027.28;5095379;28;20551;-70
2023/07/18 04:53:54;;;;;;;6.70;2.80;;;;;;;-143.49;100.00;65027.28;5094445;28;20032;-71
2023/07/18 04:56:20;;;;;;;6.90;2.45;;;;;;;-143.49;100.00;65027.28;5095175;28;20020;-70
2023/07/18 04:58:45;;;;;;;12.23;2.92;;;;;;;-143.49;100.00;65027.28;5095264;28;20027;-70
2023/07/18 05:01:10;;;;;;;12.18;2.42;;;;;;;-143.49;100.00;65027.28;5095125;28;20086;-70
2023/07/18 05:03:36;;;;;;;11.57;2.85;;;;;;;-143.49;100.00;65027.28;5095120;28;20023;-71
2023/07/18 05:06:02;;;;;;;6.13;2.63;;;;;;;-143.49;100.00;65027.28;5096089;28;20024;-70
2023/07/18 05:08:31;;;;;;;8.88;2.78;;;;;;;-143.49;100.00;65027.28;5077857;28;20115;-70
2023/07/18 05:11:03;;;;;;;9.77;2.78;;;;;;;-143.49;100.00;65027.28;5096251;28;20031;-70
2023/07/18 05:13:32;;;;;;;8.52;2.90;;;;;;;-143.49;100.00;65027.28;5096786;28;20383;-67
2023/07/18 05:16:02;;;;;;;9.73;2.90;;;;;;;-143.49;100.00;65027.28;5096604;28;20032;-70
2023/07/18 05:18:28;;;;;;;11.25;3.17;;;;;;;-143.49;100.00;65027.28;5078256;28;20475;-70
2023/07/18 05:21:05;;;;;;;13.30;3.10;;;;;;;-143.49;100.00;65027.28;5077575;28;20031;-70
2023/07/18 05:23:32;;;;;;;13.05;2.72;;;;;;;-143.49;100.00;65027.28;5076841;28;20028;-70
2023/07/18 05:25:57;;;;;;;15.55;3.08;;;;;;;-143.49;100.00;65027.28;5096395;28;20020;-70
2023/07/18 05:28:24;;;;;;;10.82;2.88;;;;;;;-143.49;100.00;65027.28;5096349;28;20032;-70
2023/07/18 05:30:51;;;;;;;13.38;2.67;;;;;;;-143.49;100.00;65027.28;5078029;28;20028;-70
2023/07/18 05:33:17;;;;;;;10.35;2.67;;;;;;;-143.49;100.00;65027.28;5077733;28;20522;-70
2023/07/18 05:35:43;;;;;;;9.48;2.92;;;;;;;-143.49;100.00;65027.28;5095962;28;20051;-70
2023/07/18 05:38:08;;;;;;;9.77;3.00;;;;;;;-143.49;100.00;65027.28;5078151;28;20093;-72
2023/07/18 05:40:37;;;;;;;10.45;2.90;;;;;;;-143.49;100.00;65027.28;5096640;28;20024;-72
2023/07/18 05:43:06;;;;;;;9.35;2.97;;;;;;;-143.49;100.00;65027.28;5096159;28;20024;-72
2023/07/18 05:45:31;;;;;;;15.48;3.53;;;;;;;-143.49;100.00;65027.28;5077136;28;20020;-73
2023/07/18 05:47:57;;;;;;;9.52;2.65;;;;;;;-143.49;100.00;65027.28;5095978;28;20101;-72
2023/07/18 05:50:23;;;;;;;7.95;2.92;;;;;;;-143.49;100.00;65027.28;5077385;28;20035;-73
2023/07/18 05:52:48;;;;;;;15.45;3.47;;;;;;;-143.49;100.00;65027.28;5077172;28;20383;-73
2023/07/18 05:55:13;;;;;;;13.23;3.10;;;;;;;-143.49;100.00;65027.28;5094063;28;20035;-73
2023/07/18 05:57:39;;;;;;;11.43;3.10;;;;;;;-143.49;100.00;65027.28;5094114;28;20024;-73
2023/07/18 06:00:06;;;;;;;16.85;3.05;;;;;;;-143.49;100.00;65027.28;5094113;28;20099;-73
2023/07/18 06:02:31;;;;;;;7.72;2.85;;;;;;;-143.49;100.00;65027.28;5075808;28;20495;-74
2023/07/18 06:04:57;;;;;;;13.75;3.10;;;;;;;-143.49;100.00;65027.28;5075743;28;20020;-73
2023/07/18 06:07:22;;;;;;;8.27;2.72;;;;;;;-143.49;100.00;65027.28;5093942;28;20356;-73
2023/07/18 06:09:52;;;;;;;11.10;3.00;;;;;;;-143.49;100.00;65027.28;5093938;28;20028;-73
2023/07/18 06:12:17;;;;;;;9.98;2.80;;;;;;;-143.49;100.00;65027.28;5075446;28;20467;-72
2023/07/18 06:14:43;;;;;;;12.85;3.20;;;;;;;-143.49;100.00;65027.28;5093697;28;20028;-73
2023/07/18 06:17:08;;;;;;;13.68;3.13;;;;;;;-143.49;100.00;65027.28;5093837;28;20043;-72
2023/07/18 06:19:33;;;;;;;11.18;2.85;;;;;;;-143.49;100.00;65027.28;5094804;28;20032;-73
2023/07/18 06:21:59;;;;;;;12.88;3.30;;;;;;;-143.49;100.00;65027.28;5076046;28;20028;-72
2023/07/18 06:24:24;;;;;;;10.30;3.05;;;;;;;-143.49;100.00;65027.28;5094368;28;20043;-72
2023/07/18 06:26:49;;;;;;;14.93;3.35;;;;;;;-143.49;100.00;65027.28;5093413;28;20598;-72
2023/07/18 06:29:19;;;;;;;11.65;3.17;;;;;;;-143.49;100.00;65027.28;5075348;28;20039;-73
2023/07/18 06:31:48;;;;;;;11.57;3.30;;;;;;;-143.49;100.00;65027.28;5093549;28;20020;-74
2023/07/18 06:34:15;;;;;;;9.93;3.30;;;;;;;-143.49;100.00;65027.28;5092954;28;20051;-72
2023/07/18 06:36:40;;;;;;;10.88;3.05;;;;;;;-143.49;100.00;65027.28;5074145;28;20158;-73
2023/07/18 06:39:05;;;;;;;14.30;3.22;;;;;;;-143.49;100.00;65027.28;5092315;28;20439;-73
2023/07/18 06:41:35;;;;;;;16.35;3.60;;;;;;;-143.49;100.00;65027.28;5075092;28;20020;-74
2023/07/18 06:44:01;;;;;;;15.05;3.67;;;;;;;-143.49;100.00;65027.28;5093540;28;20066;-73
2023/07/18 06:46:26;;;;;;;10.73;3.55;;;;;;;-143.49;100.00;65027.28;5093630;28;20024;-74
2023/07/18 06:48:52;;;;;;;13.27;3.40;;;;;;;-143.49;100.00;65027.28;5093406;28;20012;-74
2023/07/18 06:51:18;;;;;;;14.27;3.30;;;;;;;-143.49;100.00;65027.28;5093218;28;20024;-74
2023/07/18 06:53:43;;;;;;;13.13;3.35;;;;;;;-143.49;100.00;65027.28;5093246;28;20030;-73
2023/07/18 06:56:09;;;;;;;15.68;3.00;;;;;;;-143.49;100.00;65027.28;5092087;28;20464;-72
2023/07/18 06:58:34;;;;;;;13.48;3.53;;;;;;;-143.49;100.00;65027.28;5072811;28;20111;-72
2023/07/18 07:00:59;;;;;;;14.63;3.70;;;;;;;-143.49;100.00;65027.28;5091093;28;20107;-72
2023/07/18 07:03:25;;;;;;;15.25;3.67;;;;;;;-143.49;100.00;65027.28;5073113;28;20032;-72
2023/07/18 07:05:50;;;;;;;24.05;3.97;;;;;;;-143.49;100.00;65027.28;5091265;28;20016;-72
2023/07/18 07:08:18;;;;;;;18.27;3.95;;;;;;;-143.49;100.00;65027.28;5091387;28;20048;-73
2023/07/18 07:10:44;;;;;;;20.50;4.05;;;;;;;-143.49;100.00;65027.28;5091557;28;20020;-73
2023/07/18 07:13:10;;;;;;;17.85;4.18;;;;;;;-143.49;100.00;65027.28;5074948;28;20031;-73
2023/07/18 07:15:36;;;;;;;15.00;3.83;;;;;;;-143.49;100.00;65027.28;5074990;28;20039;-72
2023/07/18 07:18:05;;;;;;;15.18;3.70;;;;;;;-143.49;100.00;65027.28;5095265;28;20032;-74
2023/07/18 07:20:31;;;;;;;16.38;3.83;;;;;;;-143.49;100.00;65027.28;5078977;28;20367;-74
2023/07/18 07:22:57;;;;;;;19.35;4.28;;;;;;;-143.49;100.00;65027.28;5078985;28;20029;-73
2023/07/18 07:25:26;;;;;;;13.82;3.60;;;;;;;-143.49;100.00;65027.28;5096828;28;20032;-72
2023/07/18 07:27:52;;;;;;;17.05;3.92;;;;;;;-143.49;100.00;65027.28;5097006;28;20467;-73
2023/07/18 07:30:17;;;;;;;17.70;3.88;;;;;;;-143.49;100.00;65027.28;5097085;28;20081;-73
2023/07/18 07:32:43;;;;;;;16.27;3.95;;;;;;;-143.49;100.00;65027.28;5096936;28;20494;-73
2023/07/18 07:35:09;;;;;;;19.42;3.97;;;;;;;-143.49;100.00;65027.28;5096766;28;20086;-72
2023/07/18 07:37:36;;;;;;;21.00;4.53;;;;;;;-143.49;100.00;65027.28;5096877;28;20418;-73
2023/07/18 07:40:02;;;;;;;19.40;4.20;;;;;;;-143.49;100.00;65027.28;5096845;28;20047;-74
2023/07/18 07:42:28;;;;;;;13.00;3.55;;;;;;;-143.49;100.00;65027.28;5096825;28;20016;-73
2023/07/18 07:44:53;;;;;;;24.55;4.47;;;;;;;-143.49;100.00;65027.28;5078728;28;20016;-73
2023/07/18 07:47:18;;;;;;;17.70;4.47;;;;;;;-143.49;100.00;65027.28;5096743;28;20483;-73
2023/07/18 07:49:44;;;;;;;14.88;3.90;;;;;;;-143.49;100.00;65027.28;5096605;28;20028;-73
2023/07/18 07:52:09;;;;;;;19.40;4.13;;;;;;;-143.49;100.00;65027.28;5096692;28;20016;-73
2023/07/18 07:54:34;;;;;;;18.08;4.57;;;;;;;-143.49;100.00;65027.28;5096496;28;20115;-73
2023/07/18 07:56:59;;;;;;;21.70;4.10;;;;;;;-143.49;100.00;65027.28;5078440;28;20071;-73
2023/07/18 07:59:25;;;;;;;13.40;3.55;;;;;;;-143.49;100.00;65027.28;5096494;28;20107;-73
2023/07/18 08:01:50;;;;;;;14.52;3.58;;;;;;;-143.49;100.00;65027.28;5096756;28;20166;-73
2023/07/18 08:04:16;;;;;;;13.15;3.53;;;;;;;-143.49;100.00;65027.28;5097582;28;20031;-73
2023/07/18 08:06:41;;;;;;;13.50;3.38;;;;;;;-143.49;100.00;65027.28;5080991;28;20035;-73
2023/07/18 08:09:07;;;;;;;15.27;3.65;;;;;;;-143.49;100.00;65027.28;5097123;28;20131;-73
2023/07/18 08:11:32;;;;;;;12.13;3.33;;;;;;;-143.49;100.00;65027.28;5096679;28;20032;-74
2023/07/18 08:13:57;;;;;;;15.30;4.03;;;;;;;-143.49;100.00;65027.28;5097221;28;20021;-74
2023/07/18 08:16:23;;;;;;;12.30;3.55;;;;;;;-143.49;100.00;65027.28;5096810;28;20020;-75
2023/07/18 08:18:48;;;;;;;13.88;3.72;;;;;;;-143.49;100.00;65027.28;5098170;28;20019;-74
2023/07/18 08:21:13;;;;;;;16.73;3.55;;;;;;;-143.49;100.00;65027.28;5083646;28;20019;-74
2023/07/18 08:23:39;;;;;;;11.57;3.30;;;;;;;-143.49;100.00;65027.28;5096193;28;20024;-74
2023/07/18 08:26:04;;;;;;;13.70;3.45;;;;;;;-143.49;100.00;65027.28;5096009;28;20047;-75
2023/07/18 08:28:29;;;;;;;13.02;3.13;;;;;;;-143.49;100.00;65027.28;5094912;28;20027;-74
2023/07/18 08:30:55;;;;;;;11.25;3.10;;;;;;;-143.49;100.00;65027.28;5077481;28;20028;-75
2023/07/18 08:33:21;;;;;;;11.48;2.90;;;;;;;-143.49;100.00;65027.28;5096074;28;20099;-74
2023/07/18 08:35:49;;;;;;;13.25;3.05;;;;;;;-143.49;100.00;65027.28;5095878;28;20055;-75
2023/07/18 08:38:14;;;;;;;10.02;2.90;;;;;;;-143.49;100.00;65027.28;5077595;28;20494;-73
2023/07/18 08:40:43;;;;;;;10.82;2.85;;;;;;;-143.49;100.00;65027.28;5095828;28;20065;-73
2023/07/18 08:43:14;;;;;;;13.10;3.42;;;;;;;-143.49;100.00;65027.28;5077736;28;20023;-74
2023/07/18 08:45:40;;;;;;;12.85;2.90;;;;;;;-143.49;100.00;65027.28;5095678;28;20398;-74
2023/07/18 08:48:05;;;;;;;13.70;3.03;;;;;;;-143.49;100.00;65027.28;5095420;28;20391;-74
2023/07/18 08:50:32;;;;;;;13.77;3.35;;;;;;;-143.49;100.00;65027.28;5095264;28;20031;-74
2023/07/18 08:52:58;;;;;;;11.10;3.00;;;;;;;-143.49;100.00;65027.28;5095255;28;20023;-74
2023/07/18 08:55:23;;;;;;;9.15;3.10;;;;;;;-143.49;100.00;65027.28;5095231;28;20073;-74
2023/07/18 08:57:50;;;;;;;14.50;2.65;;;;;;;-143.49;100.00;65027.28;5095379;28;20414;-73
2023/07/18 09:00:20;;;;;;;11.75;2.85;;;;;;;-143.49;100.00;65027.28;5076949;28;20028;-74
2023/07/18 09:02:45;;;;;;;10.85;3.05;;;;;;;-143.49;100.00;65027.28;5095232;28;20103;-73
2023/07/18 09:05:33;;;;;;;13.43;2.60;;;;;;;-143.49;100.00;65027.28;5095284;28;20040;-74
2023/07/18 09:08:00;;;;;;;11.27;3.08;;;;;;;-143.49;100.00;65027.28;5095094;28;20098;-74
2023/07/18 09:10:26;;;;;;;9.70;3.00;;;;;;;-143.49;100.00;65027.28;5095419;28;20038;-75
2023/07/18 09:12:52;;;;;;;10.23;2.88;;;;;;;-143.49;100.00;65027.28;5094968;28;20394;-74
2023/07/18 09:15:19;;;;;;;11.88;3.20;;;;;;;-143.49;100.00;65027.28;5094893;28;20386;-74
2023/07/18 09:17:58;;;;;;;15.00;3.45;;;;;;;-143.49;100.00;65027.28;5094768;28;20487;-74
2023/07/18 09:20:25;;;;;;;21.58;3.13;;;;;;;-143.49;100.00;65027.28;5094883;28;20027;-74
2023/07/18 09:22:56;;;;;;;11.88;2.75;;;;;;;-143.49;100.00;65027.28;5076651;28;20023;-73
2023/07/18 09:25:22;;;;;;;11.82;2.50;;;;;;;-143.49;100.00;65027.28;5077148;28;20032;-77
2023/07/18 09:27:50;;;;;;;11.10;2.92;;;;;;;-143.49;100.00;65027.28;5094401;28;20106;-73
2023/07/18 09:30:21;;;;;;;13.18;2.80;;;;;;;-143.49;100.00;65027.28;5074891;28;20024;-74
2023/07/18 09:32:50;;;;;;;12.18;2.90;;;;;;;-143.49;100.00;65027.28;5093947;28;20062;-74
2023/07/18 09:35:15;;;;;;;10.90;3.03;;;;;;;-143.49;100.00;65027.28;5094621;28;20035;-73
2023/07/18 09:37:46;;;;;;;9.23;2.63;;;;;;;-143.49;100.00;65027.28;5094631;28;20077;-73
2023/07/18 09:40:14;;;;;;;14.25;3.22;;;;;;;-143.49;100.00;65027.28;5094069;28;20400;-73
2023/07/18 09:42:43;;;;;;;9.85;3.00;;;;;;;-143.49;100.00;65027.28;5094266;28;20015;-73
2023/07/18 09:45:10;;;;;;;10.57;2.90;;;;;;;-143.49;100.00;65027.28;5094633;28;20024;-73
2023/07/18 09:47:38;;;;;;;11.52;3.22;;;;;;;-143.49;100.00;65027.28;5076565;28;20035;-73
2023/07/18 09:50:04;;;;;;;12.32;3.20;;;;;;;-143.49;100.00;65027.28;5094829;28;20410;-73
2023/07/18 09:52:33;;;;;;;10.52;3.03;;;;;;;-143.49;100.00;65027.28;5076584;28;20024;-73
2023/07/18 09:55:04;;;;;;;10.55;3.10;;;;;;;-143.49;100.00;65027.28;5094715;28;20421;-73
2023/07/18 09:57:30;;;;;;;11.27;3.00;;;;;;;-143.49;100.00;65027.28;5094841;28;20044;-73
2023/07/18 10:00:01;;;;;;;9.15;3.08;;;;;;;-143.49;100.00;65027.28;5094771;28;20093;-74
2023/07/18 10:02:26;;;;;;;11.27;3.17;;;;;;;-143.49;100.00;65027.28;5092557;28;20020;-73
2023/07/18 10:04:52;;;;;;;9.52;2.90;;;;;;;-143.49;100.00;65027.28;5094174;28;20353;-73
2023/07/18 10:07:17;;;;;;;7.93;3.00;;;;;;;-143.49;100.00;65027.28;5093113;28;20020;-73
2023/07/18 10:09:43;;;;;;;7.90;2.40;;;;;;;-143.49;100.00;65027.28;5093524;28;20028;-73
2023/07/18 10:12:10;;;;;;;9.82;2.88;;;;;;;-143.49;100.00;65027.28;5094397;28;20082;-73
2023/07/18 10:14:56;;;;;;;7.85;2.80;;;;;;;-143.49;100.00;65027.28;5094010;28;20123;-73
2023/07/18 10:17:31;;;;;;;7.72;2.65;;;;;;;-143.49;100.00;65027.28;5075482;28;20028;-74
2023/07/18 10:19:56;;;;;;;13.13;3.30;;;;;;;-143.49;100.00;65027.28;5093898;28;20024;-73
2023/07/18 10:22:29;;;;;;;7.10;3.00;;;;;;;-143.49;100.00;65027.28;5093678;28;20358;-73
2023/07/18 10:25:18;;;;;;;13.40;3.20;;;;;;;-143.49;100.00;65027.28;5093882;28;20020;-73
2023/07/18 10:27:45;;;;;;;10.85;3.20;;;;;;;-143.49;100.00;65027.28;5093680;28;20028;-73
2023/07/18 10:30:12;;;;;;;11.23;2.95;;;;;;;-143.49;100.00;65027.28;5093868;28;20387;-73
2023/07/18 10:32:38;;;;;;;11.68;3.30;;;;;;;-143.49;100.00;65027.28;5094197;28;20032;-73
2023/07/18 10:35:13;;;;;;;11.00;3.15;;;;;;;-143.49;100.00;65027.28;5075666;28;20028;-73
2023/07/18 10:37:44;;;;;;;9.30;3.15;;;;;;;-143.49;100.00;65027.28;5093975;28;20074;-74
2023/07/18 10:40:10;;;;;;;11.15;3.22;;;;;;;-143.49;100.00;65027.28;5094031;28;20020;-74
2023/07/18 10:42:36;;;;;;;9.95;3.08;;;;;;;-143.49;100.00;65027.28;5094123;28;20422;-73
2023/07/18 10:45:06;;;;;;;9.88;3.30;;;;;;;-143.49;100.00;65027.28;5075585;28;20068;-72
2023/07/18 10:47:35;;;;;;;8.30;3.40;;;;;;;-143.49;100.00;65027.28;5094006;28;20103;-74
2023/07/18 10:50:02;;;;;;;10.18;3.53;;;;;;;-143.49;100.00;65027.28;5094128;28;20027;-73
2023/07/18 10:52:28;;;;;;;10.93;3.75;;;;;;;-143.49;100.00;65027.28;5093085;28;20027;-74
2023/07/18 10:54:57;;;;;;;12.70;4.00;;;;;;;-143.49;100.00;65027.28;5093158;28;20024;-73
2023/07/18 10:57:27;;;;;;;10.10;3.50;;;;;;;-143.49;100.00;65027.28;5074744;28;20547;-74
2023/07/18 10:59:53;;;;;;;9.80;3.63;;;;;;;-143.49;100.00;65027.28;5074928;28;20475;-72
2023/07/18 11:02:20;;;;;;;10.57;3.90;;;;;;;-143.49;100.00;65027.28;5093193;28;20090;-73